createdAt,value
2023-05-15T00:00:47.691Z,58.49
2023-05-15T00:03:16.359Z,58.74
2023-05-15T00:05:44.519Z,58.72
2023-05-15T00:08:12.484Z,59.03
2023-05-15T00:10:44.896Z,59.37
2023-05-15T00:13:18.942Z,59.33
2023-05-15T00:15:48.418Z,59.66
2023-05-15T00:18:16.374Z,59.92
2023-05-15T00:20:44.278Z,60.50
2023-05-15T00:23:12.204Z,65.62
2023-05-15T00:25:40.108Z,63.17
2023-05-15T00:28:08.003Z,61.87
2023-05-15T00:30:35.882Z,60.95
2023-05-15T00:33:05.443Z,60.38
2023-05-15T00:35:33.772Z,59.76
2023-05-15T00:38:01.772Z,59.81
2023-05-15T00:40:30.045Z,59.66
2023-05-15T00:42:58.331Z,59.92
2023-05-15T00:45:26.642Z,59.89
2023-05-15T00:47:55.441Z,60.02
2023-05-15T00:50:25.167Z,60.17
2023-05-15T00:52:53.067Z,60.82
2023-05-15T00:55:21.043Z,60.46
2023-05-15T00:57:49.312Z,60.15
2023-05-15T01:00:18.657Z,59.49
2023-05-15T01:02:47.268Z,59.35
2023-05-15T01:05:15.240Z,58.84
2023-05-15T01:07:50.438Z,58.38
2023-05-15T01:10:19.444Z,58.45
2023-05-15T01:12:48.177Z,58.60
2023-05-15T01:15:16.082Z,58.68
2023-05-15T01:17:43.980Z,58.78
2023-05-15T01:20:13.312Z,59.17
2023-05-15T01:22:54.202Z,59.76
2023-05-15T01:25:46.037Z,59.72
2023-05-15T01:28:17.361Z,59.61
2023-05-15T01:30:46.609Z,59.64
2023-05-15T01:33:19.883Z,59.45
2023-05-15T01:35:52.135Z,60.10
2023-05-15T01:38:28.370Z,60.27
2023-05-15T01:41:03.349Z,60.41
2023-05-15T01:43:33.919Z,60.33
2023-05-15T01:46:02.024Z,60.03
2023-05-15T01:48:30.118Z,60.36
2023-05-15T01:50:59.811Z,60.73
2023-05-15T01:53:28.348Z,61.21
2023-05-15T01:55:56.276Z,60.78
2023-05-15T01:58:26.065Z,60.40
2023-05-15T02:00:55.379Z,60.40
2023-05-15T02:03:23.504Z,60.11
2023-05-15T02:05:53.281Z,59.82
2023-05-15T02:08:22.172Z,59.81
2023-05-15T02:10:51.061Z,60.54
2023-05-15T02:13:19.284Z,61.06
2023-05-15T02:15:47.352Z,62.69
2023-05-15T02:18:16.765Z,62.36
2023-05-15T02:20:44.734Z,65.56
2023-05-15T02:23:12.639Z,64.23
2023-05-15T02:25:46.580Z,63.50
2023-05-15T02:28:18.682Z,63.08
2023-05-15T02:30:54.005Z,66.31
2023-05-15T02:33:29.732Z,65.24
2023-05-15T02:36:00.921Z,64.17
2023-05-15T02:38:30.718Z,63.87
2023-05-15T02:40:59.419Z,62.98
2023-05-15T02:43:27.730Z,62.18
2023-05-15T02:45:55.756Z,61.60
2023-05-15T02:48:25.348Z,63.40
2023-05-15T02:50:53.284Z,62.46
2023-05-15T02:53:21.264Z,62.83
2023-05-15T02:55:49.231Z,63.05
2023-05-15T02:58:17.148Z,63.81
2023-05-15T03:00:45.056Z,64.08
2023-05-15T03:03:14.188Z,64.62
2023-05-15T03:05:43.459Z,64.15
2023-05-15T03:08:11.371Z,63.33
2023-05-15T03:10:39.330Z,62.90
2023-05-15T03:13:07.249Z,62.06
2023-05-15T03:15:35.193Z,62.19
2023-05-15T03:18:03.200Z,61.91
2023-05-15T03:20:31.162Z,61.39
2023-05-15T03:23:00.841Z,61.33
2023-05-15T03:25:28.797Z,61.18
2023-05-15T03:27:56.671Z,61.81
2023-05-15T03:30:24.619Z,61.86
2023-05-15T03:32:52.586Z,62.05
2023-05-15T03:35:20.595Z,62.58
2023-05-15T03:37:48.499Z,62.52
2023-05-15T03:40:17.989Z,62.50
2023-05-15T03:42:45.851Z,61.89
2023-05-15T03:45:13.744Z,62.05
2023-05-15T03:47:43.007Z,61.68
2023-05-15T03:50:11.830Z,61.40
2023-05-15T03:52:40.799Z,61.48
2023-05-15T03:55:10.379Z,61.95
2023-05-15T03:57:41.544Z,62.56
2023-05-15T04:00:11.084Z,63.06
2023-05-15T04:02:39.551Z,63.76
2023-05-15T04:05:08.627Z,63.20
2023-05-15T04:07:37.582Z,62.51
2023-05-15T04:10:06.073Z,61.92
2023-05-15T04:12:35.929Z,62.17
2023-05-15T04:15:17.208Z,61.69
2023-05-15T04:17:45.489Z,61.92
2023-05-15T04:20:15.339Z,61.79
2023-05-15T04:22:43.269Z,61.85
2023-05-15T04:25:12.028Z,62.02
2023-05-15T04:27:40.083Z,62.27
2023-05-15T04:30:09.749Z,62.59
2023-05-15T04:32:39.635Z,63.60
2023-05-15T04:35:10.261Z,63.67
2023-05-15T04:37:38.434Z,63.37
2023-05-15T04:40:08.136Z,63.15
2023-05-15T04:42:37.685Z,62.93
2023-05-15T04:45:08.090Z,62.31
2023-05-15T04:47:36.137Z,61.74
2023-05-15T04:50:06.716Z,61.73
2023-05-15T04:52:34.666Z,61.45
2023-05-15T04:55:02.881Z,61.48
2023-05-15T04:57:31.089Z,61.26
2023-05-15T04:59:59.188Z,61.27
2023-05-15T05:02:27.367Z,61.54
2023-05-15T05:04:55.385Z,61.60
2023-05-15T05:07:24.689Z,61.88
2023-05-15T05:09:52.616Z,61.48
2023-05-15T05:12:20.502Z,60.95
2023-05-15T05:14:48.368Z,61.20
2023-05-15T05:17:16.292Z,61.26
2023-05-15T05:19:44.241Z,61.17
2023-05-15T05:22:12.300Z,60.54
2023-05-15T05:24:41.623Z,60.46
2023-05-15T05:27:09.637Z,60.31
2023-05-15T05:29:37.519Z,59.74
2023-05-15T05:32:06.030Z,60.26
2023-05-15T05:34:34.001Z,60.27
2023-05-15T05:37:01.996Z,63.82
2023-05-15T05:39:29.908Z,60.81
2023-05-15T05:41:59.197Z,60.09
2023-05-15T05:44:27.141Z,60.18
2023-05-15T05:46:55.124Z,60.93
2023-05-15T05:49:23.023Z,62.83
2023-05-15T05:51:50.944Z,62.04
2023-05-15T05:54:19.268Z,68.40
2023-05-15T05:56:47.414Z,61.81
2023-05-15T05:59:16.714Z,61.27
2023-05-15T06:01:44.678Z,60.95
2023-05-15T06:04:12.631Z,59.89
2023-05-15T06:06:41.270Z,63.97
2023-05-15T06:09:09.446Z,60.06
2023-05-15T06:11:37.372Z,59.32
2023-05-15T06:14:05.293Z,66.43
2023-05-15T06:16:34.570Z,67.39
2023-05-15T06:19:02.678Z,67.93
2023-05-15T06:21:30.637Z,68.72
2023-05-15T06:23:59.257Z,68.92
2023-05-15T06:26:27.242Z,65.22
2023-05-15T06:28:55.135Z,66.48
2023-05-15T06:31:23.127Z,66.47
2023-05-15T06:33:52.444Z,65.24
2023-05-15T06:36:20.633Z,64.29
2023-05-15T06:38:48.564Z,65.98
2023-05-15T06:41:16.444Z,65.68
2023-05-15T06:43:44.423Z,65.73
2023-05-15T06:46:12.330Z,65.10
2023-05-15T06:48:40.312Z,63.93
2023-05-15T06:51:09.631Z,61.02
2023-05-15T06:53:37.623Z,60.47
2023-05-15T06:56:06.265Z,58.95
2023-05-15T06:58:34.605Z,62.27
2023-05-15T07:01:03.879Z,60.16
2023-05-15T07:03:31.833Z,60.65
2023-05-15T07:05:59.760Z,60.22
2023-05-15T07:08:29.051Z,58.94
2023-05-15T07:10:56.974Z,59.04
2023-05-15T07:13:24.883Z,58.88
2023-05-15T07:15:52.796Z,59.85
2023-05-15T07:18:20.778Z,58.95
2023-05-15T07:20:48.708Z,58.35
2023-05-15T07:23:16.603Z,58.38
2023-05-15T07:25:46.178Z,57.82
2023-05-15T07:28:14.163Z,57.49
2023-05-15T07:30:42.316Z,57.30
2023-05-15T07:33:10.219Z,57.54
2023-05-15T07:35:38.168Z,56.74
2023-05-15T07:38:06.164Z,55.04
2023-05-15T07:40:34.376Z,55.46
2023-05-15T07:43:03.680Z,55.04
2023-05-15T07:45:31.600Z,54.29
2023-05-15T07:47:59.691Z,52.84
2023-05-15T07:50:27.687Z,52.63
2023-05-15T07:52:55.827Z,53.96
2023-05-15T07:55:23.907Z,53.88
2023-05-15T07:57:54.052Z,52.46
2023-05-15T08:00:23.746Z,52.55
2023-05-15T08:02:51.800Z,48.82
2023-05-15T08:05:19.901Z,49.17
2023-05-15T08:07:47.808Z,49.60
2023-05-15T08:10:15.746Z,50.82
2023-05-15T08:12:46.571Z,50.18
2023-05-15T08:15:14.786Z,48.54
2023-05-15T08:17:44.246Z,45.41
2023-05-15T08:20:13.249Z,44.75
2023-05-15T08:22:41.448Z,46.91
2023-05-15T08:25:10.216Z,43.76
2023-05-15T08:27:38.149Z,46.43
2023-05-15T08:30:07.367Z,44.46
2023-05-15T08:32:35.536Z,45.79
2023-05-15T08:35:05.198Z,41.53
2023-05-15T08:37:33.811Z,42.51
2023-05-15T08:40:01.766Z,47.10
2023-05-15T08:42:34.611Z,40.64
2023-05-15T08:45:02.841Z,42.80
2023-05-15T08:47:30.898Z,43.24
2023-05-15T08:50:04.946Z,46.00
2023-05-15T08:52:35.132Z,43.36
2023-05-15T08:55:04.020Z,44.41
2023-05-15T08:57:32.194Z,42.42
2023-05-15T09:00:00.582Z,42.95
2023-05-15T09:02:28.549Z,43.00
2023-05-15T09:04:56.765Z,41.98
2023-05-15T09:07:24.949Z,39.26
2023-05-15T09:09:55.046Z,42.71
2023-05-15T09:12:25.452Z,40.96
2023-05-15T09:14:53.998Z,41.00
2023-05-15T09:17:22.032Z,39.33
2023-05-15T09:19:49.960Z,41.98
2023-05-15T09:22:23.219Z,41.98
2023-05-15T09:24:53.186Z,40.93
2023-05-15T09:27:22.627Z,36.90
2023-05-15T09:29:51.831Z,40.76
2023-05-15T09:32:19.954Z,42.24
2023-05-15T09:34:47.943Z,41.13
2023-05-15T09:37:31.152Z,39.16
2023-05-15T09:40:09.637Z,42.24
2023-05-15T09:42:41.841Z,41.81
2023-05-15T09:45:18.861Z,40.35
2023-05-15T09:47:47.594Z,40.63
2023-05-15T09:50:22.019Z,39.64
2023-05-15T09:52:50.123Z,39.78
2023-05-15T09:55:20.000Z,40.08
2023-05-15T09:58:05.624Z,40.13
2023-05-15T10:00:33.663Z,36.13
2023-05-15T10:03:03.437Z,37.76
2023-05-15T10:05:42.510Z,39.95
2023-05-15T10:08:12.783Z,38.48
2023-05-15T10:10:40.834Z,34.94
2023-05-15T10:13:10.863Z,35.99
2023-05-15T10:15:39.764Z,40.07
2023-05-15T10:18:07.990Z,37.99
2023-05-15T10:20:36.648Z,39.74
2023-05-15T10:23:06.149Z,38.08
2023-05-15T10:25:37.935Z,37.05
2023-05-15T10:28:09.469Z,40.50
2023-05-15T10:30:37.795Z,38.62
2023-05-15T10:33:06.352Z,35.37
2023-05-15T10:35:36.275Z,36.64
2023-05-15T10:38:06.150Z,39.41
2023-05-15T10:40:34.758Z,35.94
2023-05-15T10:43:02.677Z,39.51
2023-05-15T10:45:32.388Z,38.32
2023-05-15T10:48:03.643Z,34.40
2023-05-15T10:50:31.760Z,37.93
2023-05-15T10:52:59.717Z,39.43
2023-05-15T10:55:27.679Z,36.89
2023-05-15T10:57:56.021Z,33.90
2023-05-15T11:00:28.001Z,38.02
2023-05-15T11:02:58.814Z,30.58
2023-05-15T11:05:27.413Z,37.14
2023-05-15T11:08:28.702Z,34.88
2023-05-15T11:10:56.787Z,37.47
2023-05-15T11:13:24.726Z,35.58
2023-05-15T11:15:52.716Z,34.65
2023-05-15T11:18:22.640Z,31.25
2023-05-15T11:21:11.293Z,34.45
2023-05-15T11:23:40.606Z,34.66
2023-05-15T11:26:08.564Z,29.76
2023-05-15T11:28:44.000Z,35.06
2023-05-15T11:31:12.085Z,28.79
2023-05-15T11:33:42.417Z,34.01
2023-05-15T11:36:10.505Z,33.57
2023-05-15T11:38:40.096Z,34.13
2023-05-15T11:41:27.626Z,33.84
2023-05-15T11:43:55.833Z,31.79
2023-05-15T11:46:24.102Z,34.31
2023-05-15T11:48:53.965Z,34.39
2023-05-15T11:51:25.058Z,34.51
2023-05-15T11:53:54.676Z,34.92
2023-05-15T11:56:24.322Z,37.55
2023-05-15T11:58:52.828Z,39.74
2023-05-15T12:01:21.301Z,36.53
2023-05-15T12:03:50.255Z,36.25
2023-05-15T12:06:19.864Z,39.05
2023-05-15T12:08:53.117Z,37.60
2023-05-15T12:11:23.740Z,36.59
2023-05-15T12:13:53.744Z,31.62
2023-05-15T12:16:27.684Z,35.69
2023-05-15T12:18:58.076Z,36.41
2023-05-15T12:21:29.230Z,36.44
2023-05-15T12:26:43.515Z,38.40
2023-05-15T12:29:11.461Z,41.70
2023-05-15T12:31:39.554Z,43.10
2023-05-15T12:34:07.841Z,45.06
2023-05-15T12:36:40.132Z,43.07
2023-05-15T12:39:09.183Z,45.82
2023-05-15T12:41:38.391Z,47.30
2023-05-15T12:44:06.935Z,46.82
2023-05-15T12:46:34.973Z,46.53
2023-05-15T12:49:03.016Z,46.21
2023-05-15T12:51:30.991Z,44.84
2023-05-15T12:54:00.338Z,47.21
2023-05-15T12:56:30.900Z,47.07
2023-05-15T12:58:58.957Z,47.45
2023-05-15T13:01:27.527Z,47.45
2023-05-15T13:03:55.824Z,47.82
2023-05-15T13:06:24.309Z,48.94
2023-05-15T13:08:52.758Z,46.91
2023-05-15T13:11:22.501Z,50.69
2023-05-15T13:13:55.079Z,51.88
2023-05-15T13:16:24.008Z,50.82
2023-05-15T13:18:52.199Z,51.33
2023-05-15T13:21:20.209Z,50.45
2023-05-15T13:23:48.243Z,50.01
2023-05-15T13:26:16.177Z,50.51
2023-05-15T13:28:45.471Z,50.42
2023-05-15T13:31:13.611Z,51.52
2023-05-15T13:33:41.924Z,51.48
2023-05-15T13:36:10.096Z,50.19
2023-05-15T13:38:38.032Z,49.86
2023-05-15T13:41:06.107Z,50.66
2023-05-15T13:43:34.046Z,50.39
2023-05-15T13:46:03.449Z,50.63
2023-05-15T13:48:31.385Z,50.56
2023-05-15T13:50:59.314Z,52.32
2023-05-15T13:53:27.294Z,52.26
2023-05-15T13:55:55.300Z,53.01
2023-05-15T13:58:26.499Z,53.46
2023-05-15T14:00:54.617Z,52.23
2023-05-15T14:03:24.079Z,53.67
2023-05-15T14:05:52.861Z,53.03
2023-05-15T14:08:21.171Z,53.96
2023-05-15T14:10:49.185Z,50.98
2023-05-15T14:13:17.102Z,51.02
2023-05-15T14:15:45.019Z,48.77
2023-05-15T14:18:12.949Z,47.66
2023-05-15T14:20:42.310Z,45.03
2023-05-15T14:23:10.200Z,44.25
2023-05-15T14:25:38.142Z,44.30
2023-05-15T14:28:06.060Z,44.97
2023-05-15T14:30:33.996Z,46.25
2023-05-15T14:33:01.966Z,45.26
2023-05-15T14:35:29.935Z,45.48
2023-05-15T14:37:59.541Z,45.92
2023-05-15T14:40:27.689Z,44.54
2023-05-15T14:42:55.770Z,45.65
2023-05-15T14:45:24.009Z,45.89
2023-05-15T14:47:52.144Z,42.09
2023-05-15T14:50:20.083Z,42.45
2023-05-15T14:52:47.979Z,44.21
2023-05-15T14:55:22.065Z,44.86
2023-05-15T14:57:50.193Z,43.82
2023-05-15T15:00:18.858Z,40.96
2023-05-15T15:02:47.127Z,42.89
2023-05-15T15:05:15.120Z,40.49
2023-05-15T15:08:03.711Z,46.84
2023-05-15T15:10:33.728Z,47.35
2023-05-15T15:13:02.223Z,44.07
2023-05-15T15:15:32.492Z,41.51
2023-05-15T15:18:01.045Z,42.62
2023-05-15T15:20:29.723Z,45.88
2023-05-15T15:22:57.654Z,45.43
2023-05-15T15:25:25.767Z,46.47
2023-05-15T15:27:55.042Z,48.22
2023-05-15T15:30:23.027Z,46.23
2023-05-15T15:32:51.294Z,47.34
2023-05-15T15:35:19.483Z,45.58
2023-05-15T15:37:47.399Z,46.70
2023-05-15T15:40:15.359Z,44.67
2023-05-15T15:42:43.290Z,44.91
2023-05-15T15:45:13.866Z,43.92
2023-05-15T15:47:41.975Z,43.30
2023-05-15T15:50:10.595Z,44.37
2023-05-15T15:52:38.545Z,44.19
2023-05-15T15:55:07.603Z,46.68
2023-05-15T15:57:35.535Z,47.23
2023-05-15T16:00:03.722Z,44.83
2023-05-15T16:02:33.012Z,46.65
2023-05-15T16:05:01.110Z,47.99
2023-05-15T16:07:29.048Z,48.41
2023-05-15T16:10:10.770Z,48.72
2023-05-15T16:12:42.350Z,49.00
2023-05-15T16:17:43.386Z,49.88
2023-05-15T16:20:11.878Z,50.30
2023-05-15T16:22:41.710Z,50.14
2023-05-15T16:25:10.208Z,49.63
2023-05-15T16:27:38.187Z,51.13
2023-05-15T16:30:06.960Z,49.98
2023-05-15T16:32:34.893Z,50.60
2023-05-15T16:35:04.495Z,50.93
2023-05-15T16:37:32.613Z,50.29
2023-05-15T16:40:00.798Z,48.14
2023-05-15T16:42:28.991Z,49.39
2023-05-15T16:44:56.967Z,48.88
2023-05-15T16:47:24.988Z,49.88
2023-05-15T16:49:52.899Z,49.80
2023-05-15T16:52:24.889Z,47.49
2023-05-15T16:54:55.477Z,48.31
2023-05-15T16:57:26.316Z,48.51
2023-05-15T16:59:54.468Z,49.20
2023-05-15T17:02:22.606Z,49.95
2023-05-15T17:04:50.809Z,50.08
2023-05-15T17:07:18.763Z,48.01
2023-05-15T17:09:48.034Z,51.70
2023-05-15T17:12:15.925Z,52.22
2023-05-15T17:14:43.908Z,53.34
2023-05-15T17:17:11.768Z,50.80
2023-05-15T17:19:39.712Z,50.85
2023-05-15T17:22:07.624Z,51.80
2023-05-15T17:24:49.371Z,55.47
2023-05-15T17:27:20.933Z,54.96
2023-05-15T17:29:49.246Z,54.20
2023-05-15T17:32:17.760Z,54.04
2023-05-15T17:34:45.964Z,53.62
2023-05-15T17:37:14.655Z,55.75
2023-05-15T17:39:42.799Z,55.96
2023-05-15T17:42:10.713Z,56.98
2023-05-15T17:44:40.077Z,54.62
2023-05-15T17:47:08.629Z,56.67
2023-05-15T17:49:36.594Z,56.95
2023-05-15T17:52:04.732Z,58.48
2023-05-15T17:54:32.668Z,60.51
2023-05-15T17:57:00.627Z,61.22
2023-05-15T17:59:28.658Z,60.85
2023-05-15T18:01:58.170Z,60.33
2023-05-15T18:04:26.309Z,59.90
2023-05-15T18:06:54.307Z,59.25
2023-05-15T18:09:24.153Z,57.51
2023-05-15T18:11:52.881Z,60.11
2023-05-15T18:14:20.845Z,60.90
2023-05-15T18:16:48.743Z,61.44
2023-05-15T18:19:18.345Z,61.44
2023-05-15T18:21:46.331Z,61.50
2023-05-15T18:24:14.284Z,60.75
2023-05-15T18:26:42.211Z,61.61
2023-05-15T18:29:10.133Z,61.14
2023-05-15T18:31:38.084Z,63.05
2023-05-15T18:34:06.013Z,65.19
2023-05-15T18:36:35.685Z,64.53
2023-05-15T18:39:03.586Z,63.32
2023-05-15T18:41:31.491Z,62.11
2023-05-15T18:43:59.380Z,63.77
2023-05-15T18:46:28.418Z,64.72
2023-05-15T18:48:56.511Z,63.45
2023-05-15T18:51:24.690Z,64.95
2023-05-15T18:53:53.994Z,63.90
2023-05-15T18:56:22.718Z,63.81
2023-05-15T18:58:50.653Z,62.93
2023-05-15T19:01:18.576Z,61.79
2023-05-15T19:03:46.617Z,62.02
2023-05-15T19:06:19.747Z,60.89
2023-05-15T19:08:48.483Z,62.64
2023-05-15T19:11:17.885Z,63.62
2023-05-15T19:13:45.746Z,64.92
2023-05-15T19:16:13.806Z,65.94
2023-05-15T19:18:41.940Z,64.73
2023-05-15T19:21:10.041Z,64.50
2023-05-15T19:23:38.369Z,65.16
2023-05-15T19:26:06.276Z,68.32
2023-05-15T19:28:35.975Z,67.29
2023-05-15T19:31:04.438Z,65.71
2023-05-15T19:33:32.339Z,66.69
2023-05-15T19:36:00.241Z,68.06
2023-05-15T19:38:28.150Z,66.43
2023-05-15T19:40:56.072Z,65.65
2023-05-15T19:43:23.987Z,64.01
2023-05-15T19:45:53.283Z,65.03
2023-05-15T19:48:21.181Z,63.41
2023-05-15T19:50:49.111Z,66.68
2023-05-15T19:53:17.045Z,64.44
2023-05-15T19:55:44.956Z,67.38
2023-05-15T19:58:12.885Z,64.91
2023-05-15T20:00:41.231Z,65.96
2023-05-15T20:03:10.694Z,67.66
2023-05-15T20:05:40.805Z,65.95
2023-05-15T20:08:08.749Z,65.02
2023-05-15T20:10:36.669Z,65.69
2023-05-15T20:13:04.833Z,66.38
2023-05-15T20:15:33.385Z,66.07
2023-05-15T20:18:01.308Z,65.81
2023-05-15T20:20:31.172Z,67.76
2023-05-15T20:22:59.503Z,68.66
2023-05-15T20:25:29.028Z,67.48
2023-05-15T20:27:58.736Z,66.75
2023-05-15T20:30:28.096Z,66.11
2023-05-15T20:32:56.550Z,65.01
2023-05-15T20:35:25.166Z,65.12
2023-05-15T20:37:56.436Z,66.42
2023-05-15T20:40:26.047Z,67.65
2023-05-15T20:42:54.340Z,66.93
2023-05-15T20:45:22.680Z,66.92
2023-05-15T20:47:51.157Z,66.34
2023-05-15T20:50:19.336Z,65.91
2023-05-15T20:52:47.271Z,66.16
2023-05-15T20:55:19.727Z,65.68
2023-05-15T20:57:48.530Z,66.74
2023-05-15T21:00:17.357Z,64.88
2023-05-15T21:02:45.716Z,65.21
2023-05-15T21:05:13.756Z,67.95
2023-05-15T21:07:42.072Z,67.59
2023-05-15T21:10:10.462Z,68.57
2023-05-15T21:12:39.886Z,67.47
2023-05-15T21:15:09.132Z,67.49
2023-05-15T21:17:37.066Z,67.98
2023-05-15T21:20:05.706Z,67.29
2023-05-15T21:22:34.363Z,68.06
2023-05-15T21:25:02.493Z,67.48
2023-05-15T21:27:30.383Z,67.25
2023-05-15T21:29:59.701Z,65.93
2023-05-15T21:32:27.687Z,66.56
2023-05-15T21:34:55.618Z,67.91
2023-05-15T21:37:23.504Z,68.24
2023-05-15T21:39:51.414Z,67.98
2023-05-15T21:42:19.389Z,67.67
2023-05-15T21:44:47.308Z,67.79
2023-05-15T21:47:16.657Z,67.31
2023-05-15T21:49:44.626Z,66.61
2023-05-15T21:52:12.526Z,67.16
2023-05-15T21:54:40.466Z,65.70
2023-05-15T21:57:08.387Z,66.55
2023-05-15T21:59:36.384Z,67.13
2023-05-15T22:02:04.562Z,68.34
2023-05-15T22:04:34.352Z,68.79
2023-05-15T22:07:02.272Z,68.62
2023-05-15T22:09:30.243Z,67.03
2023-05-15T22:12:15.336Z,67.70
2023-05-15T22:14:54.428Z,66.92
2023-05-15T22:17:27.345Z,66.86
2023-05-15T22:20:02.649Z,66.95
2023-05-15T22:22:30.587Z,68.58
2023-05-15T22:24:58.513Z,68.35
2023-05-15T22:27:27.797Z,67.84
2023-05-15T22:29:55.887Z,68.69
2023-05-15T22:32:23.893Z,68.61
2023-05-15T22:34:51.934Z,69.28
2023-05-15T22:37:21.897Z,67.89
2023-05-15T22:39:49.848Z,67.99
2023-05-15T22:42:18.547Z,66.03
2023-05-15T22:44:46.494Z,67.84
2023-05-15T22:47:14.408Z,67.24
2023-05-15T22:49:42.352Z,69.07
2023-05-15T22:52:12.136Z,69.92
2023-05-15T22:55:17.117Z,70.25
2023-05-15T22:57:45.408Z,69.68
2023-05-15T23:00:14.696Z,68.51
2023-05-15T23:02:44.237Z,67.51
2023-05-15T23:05:12.855Z,66.13
2023-05-15T23:07:40.848Z,69.36
2023-05-15T23:10:11.005Z,69.06
2023-05-15T23:12:38.939Z,69.84
2023-05-15T23:15:07.580Z,69.44
2023-05-15T23:17:35.513Z,68.79
2023-05-15T23:20:03.564Z,69.05
2023-05-15T23:22:31.459Z,65.15
2023-05-15T23:24:59.352Z,66.47
2023-05-15T23:27:28.686Z,66.16
2023-05-15T23:29:56.638Z,66.53
2023-05-15T23:32:24.596Z,67.79
2023-05-15T23:34:54.430Z,66.39
2023-05-15T23:37:22.360Z,67.25
2023-05-15T23:39:50.346Z,66.95
2023-05-15T23:42:18.256Z,66.58
2023-05-15T23:44:47.525Z,68.52
2023-05-15T23:47:16.266Z,66.78
2023-05-15T23:49:44.219Z,69.17
2023-05-15T23:52:12.267Z,69.91
2023-05-15T23:54:40.765Z,70.39
2023-05-15T23:57:08.693Z,69.04
2023-05-15T23:59:36.587Z,69.23
